Time;durP1;ratioP1;P1;durP2;ratioP2;P2;SDS_P1;SDS_P2;PMS_P1;PMS_P2;Temp;Humidity;BMP_temperature;BMP_pressure;BME280_temperature;BME280_humidity;BME280_pressure;Samples;Min_cycle;Max_cycle;Signal;HPM_P1;HPM_P2
2023/08/11 00:01:53;;;;;;;12.95;7.30;;;17.10;99.90;;;;;;5043490;28;266227;-70
2023/08/11 00:04:19;;;;;;;13.23;7.13;;;17.10;99.90;;;;;;5075226;28;20534;-70
2023/08/11 00:06:45;;;;;;;16.75;8.65;;;17.00;99.90;;;;;;5051640;28;272334;-70
2023/08/11 00:09:12;;;;;;;18.33;8.00;;;17.00;99.90;;;;;;5076824;28;20044;-70
2023/08/11 00:11:38;;;;;;;15.60;8.98;;;16.90;99.90;;;;;;5052788;28;263849;-70
2023/08/11 00:14:04;;;;;;;15.02;8.43;;;16.90;99.90;;;;;;5085634;28;20051;-70
2023/08/11 00:16:30;;;;;;;17.55;9.00;;;16.80;99.90;;;;;;5076070;28;20375;-70
2023/08/11 00:18:56;;;;;;;14.70;8.75;;;16.80;99.90;;;;;;5051912;28;260708;-68
2023/08/11 00:21:23;;;;;;;15.18;7.78;;;16.80;99.90;;;;;;5068036;28;20411;-70
2023/08/11 00:23:49;;;;;;;15.43;8.13;;;16.70;99.90;;;;;;5059600;28;272500;-70
2023/08/11 00:26:15;;;;;;;15.15;8.50;;;16.60;99.90;;;;;;5066647;28;20063;-70
2023/08/11 00:28:43;;;;;;;15.77;8.93;;;16.60;99.90;;;;;;5065659;28;254554;-68
2023/08/11 00:31:09;;;;;;;13.65;7.70;;;16.50;99.90;;;;;;5066704;28;20491;-70
2023/08/11 00:33:36;;;;;;;14.15;8.15;;;16.50;99.90;;;;;;5057734;28;258921;-69
2023/08/11 00:36:02;;;;;;;15.60;7.82;;;16.40;99.90;;;;;;5066431;28;20049;-70
2023/08/11 00:38:37;;;;;;;17.02;9.25;;;16.40;99.90;;;;;;5051411;28;277786;-71
2023/08/11 00:41:05;;;;;;;16.42;8.75;;;16.30;99.90;;;;;;5074313;28;20399;-70
2023/08/11 00:43:31;;;;;;;15.20;7.85;;;16.30;99.90;;;;;;5058031;28;30034;-69
2023/08/11 00:45:59;;;;;;;15.88;8.88;;;16.30;99.90;;;;;;5075183;28;20053;-69
2023/08/11 00:48:25;;;;;;;14.95;8.82;;;16.20;99.90;;;;;;5070021;28;262624;-70
2023/08/11 00:50:57;;;;;;;16.42;9.13;;;16.20;99.90;;;;;;5067535;28;20518;-70
2023/08/11 00:53:24;;;;;;;17.52;8.88;;;16.10;99.90;;;;;;5052765;28;166631;-69
2023/08/11 00:55:51;;;;;;;14.63;8.63;;;16.10;99.90;;;;;;5069645;28;20530;-69
2023/08/11 00:58:18;;;;;;;17.60;9.45;;;16.10;99.90;;;;;;5057078;28;269009;-70
2023/08/11 01:00:45;;;;;;;15.57;10.25;;;16.00;99.90;;;;;;5063496;28;20056;-70
2023/08/11 01:03:11;;;;;;;16.40;10.20;;;16.00;99.90;;;;;;5066764;28;257657;-70
2023/08/11 01:05:45;;;;;;;16.10;9.88;;;16.00;99.90;;;;;;5078279;28;20052;-70
2023/08/11 01:08:22;;;;;;;16.27;9.15;;;15.90;99.90;;;;;;5059222;28;254462;-70
2023/08/11 01:11:02;;;;;;;17.30;9.75;;;15.90;99.90;;;;;;5070245;28;20071;-71
2023/08/11 01:13:31;;;;;;;16.02;9.40;;;15.90;99.90;;;;;;5067154;28;266447;-70
2023/08/11 01:15:59;;;;;;;17.02;11.02;;;15.80;99.90;;;;;;5062679;28;20052;-69
2023/08/11 01:18:28;;;;;;;17.30;9.38;;;15.80;99.90;;;;;;5069531;28;269608;-70
2023/08/11 01:21:14;;;;;;;17.70;11.15;;;15.80;99.90;;;;;;5080046;28;20060;-70
2023/08/11 01:23:41;;;;;;;18.38;10.40;;;15.70;99.90;;;;;;5059271;28;286451;-70
2023/08/11 01:26:07;;;;;;;17.80;11.85;;;15.70;99.90;;;;;;5072576;28;20047;-70
2023/08/11 01:28:34;;;;;;;18.50;12.30;;;15.70;99.90;;;;;;5067273;28;264878;-70
2023/08/11 01:31:00;;;;;;;16.60;11.80;;;15.70;99.90;;;;;;5073633;28;20486;-70
2023/08/11 01:33:27;;;;;;;18.83;12.48;;;15.70;99.90;;;;;;5072001;28;276629;-70
2023/08/11 01:35:53;;;;;;;18.90;12.73;;;15.60;99.90;;;;;;5067993;28;20047;-70
2023/08/11 01:38:19;;;;;;;18.10;13.48;;;15.60;99.90;;;;;;5059424;28;237660;-70
2023/08/11 01:40:45;;;;;;;17.48;11.95;;;15.60;99.90;;;;;;5067960;28;20450;-70
2023/08/11 01:43:13;;;;;;;18.67;13.82;;;15.60;99.90;;;;;;5064032;28;70635;-70
2023/08/11 01:45:43;;;;;;;19.00;13.30;;;15.50;99.90;;;;;;5071886;28;20596;-70
2023/08/11 01:48:11;;;;;;;16.73;12.70;;;15.50;99.90;;;;;;5060639;28;193998;-70
2023/08/11 01:50:37;;;;;;;20.27;13.65;;;15.50;99.90;;;;;;5068444;28;20558;-70
2023/08/11 01:53:04;;;;;;;17.05;12.80;;;15.50;99.90;;;;;;5039799;28;275340;-70
2023/08/11 01:55:30;;;;;;;22.00;14.45;;;15.40;99.90;;;;;;5058010;28;20075;-70
2023/08/11 01:57:56;;;;;;;23.23;15.52;;;15.40;99.90;;;;;;5058326;28;270359;-72
2023/08/11 02:00:22;;;;;;;19.15;15.07;;;15.40;99.90;;;;;;5066358;28;20060;-70
2023/08/11 02:02:49;;;;;;;24.10;14.98;;;15.40;99.90;;;;;;5055409;28;278803;-70
2023/08/11 02:05:15;;;;;;;18.85;14.15;;;15.40;99.90;;;;;;5067527;28;20052;-69
2023/08/11 02:07:42;;;;;;;19.45;15.25;;;15.40;99.90;;;;;;5060510;28;268722;-69
2023/08/11 02:10:09;;;;;;;20.70;16.35;;;15.40;99.90;;;;;;5068055;28;20048;-69
2023/08/11 02:12:40;;;;;;;21.70;15.43;;;15.40;99.90;;;;;;5061690;28;252687;-70
2023/08/11 02:15:06;;;;;;;18.38;15.18;;;15.40;99.90;;;;;;5069563;28;20051;-70
2023/08/11 02:17:33;;;;;;;20.63;15.20;;;15.40;99.90;;;;;;5060064;28;265408;-69
2023/08/11 02:20:00;;;;;;;20.02;14.90;;;15.40;99.90;;;;;;5073935;28;20061;-69
2023/08/11 02:22:26;;;;;;;19.88;16.05;;;15.40;99.90;;;;;;5057727;28;294175;-68
2023/08/11 02:24:52;;;;;;;20.25;15.95;;;15.40;99.90;;;;;;5072604;28;20048;-69
2023/08/11 02:27:19;;;;;;;20.88;15.48;;;15.40;99.90;;;;;;5079693;28;52830;-69
2023/08/11 02:29:46;;;;;;;20.75;14.93;;;15.40;99.90;;;;;;5068099;28;20044;-69
2023/08/11 02:32:12;;;;;;;20.45;15.25;;;15.40;99.90;;;;;;5049951;28;263891;-69
2023/08/11 02:34:38;;;;;;;21.63;16.85;;;15.30;99.90;;;;;;5079285;28;20052;-69
2023/08/11 02:37:04;;;;;;;22.55;15.68;;;15.30;99.90;;;;;;5045283;28;269366;-69
2023/08/11 02:39:30;;;;;;;20.25;14.77;;;15.30;99.90;;;;;;5082209;28;20805;-70
2023/08/11 02:41:56;;;;;;;21.27;15.55;;;15.30;99.90;;;;;;5053527;28;272480;-68
2023/08/11 02:44:23;;;;;;;20.92;16.45;;;15.30;99.90;;;;;;5072888;28;20057;-69
2023/08/11 02:46:49;;;;;;;21.30;16.17;;;15.20;99.90;;;;;;5051687;28;268845;-70
2023/08/11 02:49:15;;;;;;;22.27;15.40;;;15.20;99.90;;;;;;5079446;28;20627;-69
2023/08/11 02:51:41;;;;;;;19.55;14.70;;;15.20;99.90;;;;;;5039517;28;256049;-70
2023/08/11 02:54:07;;;;;;;21.38;15.55;;;15.20;99.90;;;;;;5069645;28;20045;-70
2023/08/11 02:56:33;;;;;;;24.27;15.63;;;15.20;99.90;;;;;;5069955;28;20048;-70
2023/08/11 02:58:59;;;;;;;20.75;15.98;;;15.20;99.90;;;;;;5050224;28;229707;-70
2023/08/11 03:01:25;;;;;;;24.65;15.90;;;15.10;99.90;;;;;;5057692;28;20044;-70
2023/08/11 03:03:52;;;;;;;20.45;15.00;;;15.10;99.90;;;;;;5063451;28;266587;-69
2023/08/11 03:06:18;;;;;;;20.95;16.10;;;15.10;99.90;;;;;;5068916;28;20052;-69
2023/08/11 03:08:44;;;;;;;19.73;15.52;;;15.10;99.90;;;;;;5055204;28;274770;-69
2023/08/11 03:11:10;;;;;;;22.02;15.88;;;15.10;99.90;;;;;;5067637;28;20055;-70
2023/08/11 03:13:37;;;;;;;21.00;14.95;;;15.10;99.90;;;;;;5055505;28;39150;-69
2023/08/11 03:16:03;;;;;;;21.15;14.52;;;15.10;99.90;;;;;;5067120;28;20051;-69
2023/08/11 03:18:30;;;;;;;18.63;15.05;;;15.10;99.90;;;;;;5052463;28;256285;-68
2023/08/11 03:20:56;;;;;;;19.50;14.63;;;15.10;99.90;;;;;;5064716;28;20048;-68
2023/08/11 03:23:22;;;;;;;21.30;14.73;;;15.20;99.90;;;;;;5059620;28;264963;-69
2023/08/11 03:25:48;;;;;;;18.98;14.20;;;15.20;99.90;;;;;;5064001;28;20499;-69
2023/08/11 03:28:14;;;;;;;20.50;13.98;;;15.20;99.90;;;;;;5050083;28;275021;-69
2023/08/11 03:30:40;;;;;;;18.17;13.90;;;15.20;99.90;;;;;;5071128;28;20053;-70
2023/08/11 03:33:07;;;;;;;20.73;14.43;;;15.20;99.90;;;;;;5054502;28;253554;-70
2023/08/11 03:35:33;;;;;;;17.67;14.55;;;15.20;99.90;;;;;;5069374;28;20052;-69
2023/08/11 03:38:00;;;;;;;18.58;13.32;;;15.20;99.90;;;;;;5055244;28;43274;-69
2023/08/11 03:40:26;;;;;;;20.30;13.73;;;15.20;99.90;;;;;;5072898;28;20746;-69
2023/08/11 03:42:53;;;;;;;16.92;13.25;;;15.20;99.90;;;;;;5054211;28;267255;-69
2023/08/11 03:45:19;;;;;;;18.55;13.98;;;15.20;99.90;;;;;;5056202;28;20052;-70
2023/08/11 03:47:45;;;;;;;21.45;13.77;;;15.10;99.90;;;;;;5059227;28;265533;-70
2023/08/11 03:50:11;;;;;;;18.23;13.88;;;15.10;99.90;;;;;;5063741;28;20039;-69
2023/08/11 03:52:38;;;;;;;19.88;13.35;;;15.20;99.90;;;;;;5041337;28;95678;-70
2023/08/11 03:55:09;;;;;;;17.50;12.95;;;15.20;99.90;;;;;;5066976;28;20507;-68
2023/08/11 03:57:37;;;;;;;18.70;13.98;;;15.10;99.90;;;;;;5056262;28;276973;-69
2023/08/11 04:00:14;;;;;;;17.70;12.85;;;15.10;99.90;;;;;;5060137;28;20049;-69
2023/08/11 04:02:44;;;;;;;19.90;13.15;;;15.10;99.90;;;;;;5048756;28;272511;-69
2023/08/11 04:05:10;;;;;;;19.15;13.35;;;15.00;99.90;;;;;;5063500;28;20052;-69
2023/08/11 04:07:37;;;;;;;21.25;12.75;;;15.10;99.90;;;;;;5049917;28;270184;-70
2023/08/11 04:10:04;;;;;;;17.70;12.10;;;15.10;99.90;;;;;;5067904;28;20037;-70
2023/08/11 04:12:33;;;;;;;18.10;12.55;;;15.10;99.90;;;;;;5057736;28;252897;-69
2023/08/11 04:14:59;;;;;;;18.85;12.57;;;15.10;99.90;;;;;;5067450;28;20067;-69
2023/08/11 04:17:26;;;;;;;17.95;13.25;;;15.10;99.90;;;;;;5052210;28;264345;-68
2023/08/11 04:19:53;;;;;;;20.77;12.57;;;15.10;99.90;;;;;;5068522;28;20406;-69
2023/08/11 04:22:20;;;;;;;18.65;12.40;;;15.10;99.90;;;;;;5054178;28;247285;-69
2023/08/11 04:24:46;;;;;;;18.25;12.82;;;15.10;99.90;;;;;;5068452;28;20063;-69
2023/08/11 04:27:12;;;;;;;22.10;13.10;;;15.10;99.90;;;;;;5049318;28;263050;-69
2023/08/11 04:29:38;;;;;;;18.85;13.55;;;15.10;99.90;;;;;;5079077;28;20072;-70
2023/08/11 04:32:05;;;;;;;21.88;12.27;;;15.10;99.90;;;;;;5055042;28;279928;-70
2023/08/11 04:34:31;;;;;;;18.17;12.60;;;15.10;99.90;;;;;;5078693;28;20056;-69
2023/08/11 04:36:57;;;;;;;17.23;12.73;;;15.20;99.90;;;;;;5049099;28;267093;-69
2023/08/11 04:39:24;;;;;;;18.00;12.88;;;15.10;99.90;;;;;;5072366;28;20519;-70
2023/08/11 04:41:50;;;;;;;17.42;12.73;;;15.20;99.90;;;;;;5048295;28;269461;-71
2023/08/11 04:44:16;;;;;;;20.20;11.85;;;15.20;99.90;;;;;;5070551;28;20056;-70
2023/08/11 04:46:42;;;;;;;17.17;12.70;;;15.20;99.90;;;;;;5049271;28;280168;-70
2023/08/11 04:49:08;;;;;;;16.98;11.70;;;15.30;99.90;;;;;;5057492;28;20539;-69
2023/08/11 04:51:34;;;;;;;16.55;12.70;;;15.30;99.90;;;;;;5067034;28;20051;-71
2023/08/11 04:54:02;;;;;;;17.98;12.13;;;15.30;99.90;;;;;;5049851;28;76419;-69
2023/08/11 04:56:29;;;;;;;17.45;12.05;;;15.30;99.90;;;;;;5068334;28;20045;-70
2023/08/11 04:58:55;;;;;;;17.33;11.95;;;15.40;99.90;;;;;;5046445;28;279618;-69
2023/08/11 05:01:22;;;;;;;17.95;11.98;;;15.40;99.90;;;;;;5067295;28;20083;-69
2023/08/11 05:03:52;;;;;;;17.00;11.43;;;15.40;99.90;;;;;;5057090;28;270572;-70
2023/08/11 05:06:19;;;;;;;16.65;11.60;;;15.50;99.90;;;;;;5068859;28;20052;-69
2023/08/11 05:08:48;;;;;;;17.02;11.60;;;15.50;99.90;;;;;;5061029;28;271697;-70
2023/08/11 05:11:14;;;;;;;17.45;11.18;;;15.60;99.90;;;;;;5084771;28;20053;-72
2023/08/11 05:13:40;;;;;;;20.73;11.43;;;15.70;99.90;;;;;;5060103;28;264895;-70
2023/08/11 05:16:06;;;;;;;15.30;11.07;;;15.80;99.90;;;;;;5064006;28;20045;-70
2023/08/11 05:18:32;;;;;;;14.88;10.65;;;15.80;99.90;;;;;;5060068;28;274420;-70
2023/08/11 05:20:58;;;;;;;16.80;11.32;;;15.90;99.90;;;;;;5062196;28;20049;-70
2023/08/11 05:23:24;;;;;;;17.73;10.57;;;16.00;99.90;;;;;;5062585;28;236714;-69
2023/08/11 05:25:50;;;;;;;15.48;10.50;;;16.10;99.90;;;;;;5061937;28;20703;-70
2023/08/11 05:28:17;;;;;;;16.25;10.05;;;16.30;99.90;;;;;;5060485;28;272505;-69
2023/08/11 05:30:43;;;;;;;15.48;9.65;;;16.50;99.90;;;;;;5070180;28;20049;-69
2023/08/11 05:33:09;;;;;;;18.48;9.55;;;16.80;99.90;;;;;;5057876;28;275727;-69
2023/08/11 05:35:35;;;;;;;16.38;9.05;;;17.10;99.90;;;;;;5060491;28;20058;-71
2023/08/11 05:38:01;;;;;;;13.73;8.25;;;17.40;99.90;;;;;;5064586;28;263855;-69
2023/08/11 05:40:29;;;;;;;14.55;7.72;;;17.70;99.90;;;;;;5066078;28;20053;-69
2023/08/11 05:42:55;;;;;;;14.57;8.13;;;17.90;99.90;;;;;;5054698;28;277944;-70
2023/08/11 05:45:21;;;;;;;12.65;7.40;;;18.10;99.90;;;;;;5071864;28;20434;-69
2023/08/11 05:47:47;;;;;;;14.40;7.00;;;18.20;99.90;;;;;;5062543;28;260687;-70
2023/08/11 05:50:13;;;;;;;11.52;6.85;;;18.50;99.90;;;;;;5074339;28;20732;-70
2023/08/11 05:52:39;;;;;;;11.60;6.63;;;18.50;99.90;;;;;;5042893;28;271361;-69
2023/08/11 05:55:06;;;;;;;12.85;6.70;;;18.70;99.90;;;;;;5062869;28;20037;-69
2023/08/11 05:57:32;;;;;;;11.48;6.60;;;18.80;99.90;;;;;;5059173;28;97215;-69
2023/08/11 05:59:58;;;;;;;12.90;6.10;;;19.00;99.90;;;;;;5068288;28;20059;-68
2023/08/11 06:02:24;;;;;;;13.60;6.05;;;19.20;99.90;;;;;;5055205;28;23240;-69
2023/08/11 06:04:51;;;;;;;12.32;5.85;;;19.40;99.90;;;;;;5070675;28;20055;-71
2023/08/11 06:07:17;;;;;;;13.85;6.35;;;19.40;99.90;;;;;;5054912;28;268873;-69
2023/08/11 06:09:44;;;;;;;15.05;5.85;;;19.50;99.90;;;;;;5075681;28;20140;-70
2023/08/11 06:12:10;;;;;;;11.20;5.55;;;19.60;99.90;;;;;;5059060;28;117915;-70
2023/08/11 06:14:36;;;;;;;15.10;5.97;;;19.80;99.90;;;;;;5072810;28;20546;-70
2023/08/11 06:17:03;;;;;;;11.50;5.80;;;19.90;99.90;;;;;;5047909;28;268174;-70
2023/08/11 06:19:29;;;;;;;11.55;5.63;;;20.00;99.90;;;;;;5081544;28;20695;-70
2023/08/11 06:21:55;;;;;;;10.35;5.10;;;20.20;99.90;;;;;;5054671;28;275983;-69
2023/08/11 06:24:22;;;;;;;10.02;5.40;;;20.40;99.90;;;;;;5078244;28;20063;-69
2023/08/11 06:26:49;;;;;;;11.20;5.40;;;20.40;99.90;;;;;;5046802;28;265568;-69
2023/08/11 06:29:16;;;;;;;15.05;5.53;;;20.50;99.90;;;;;;5082606;28;20049;-70
2023/08/11 06:31:42;;;;;;;11.57;5.22;;;20.60;99.90;;;;;;5048646;28;277793;-70
2023/08/11 06:34:09;;;;;;;11.98;5.25;;;20.70;99.90;;;;;;5074508;28;20049;-70
2023/08/11 06:36:35;;;;;;;10.25;5.03;;;20.80;99.90;;;;;;5044753;28;254464;-69
2023/08/11 06:39:02;;;;;;;9.73;4.78;;;21.00;99.90;;;;;;5083757;28;20587;-69
2023/08/11 06:41:29;;;;;;;11.63;4.90;;;21.10;99.90;;;;;;5064818;28;20052;-69
2023/08/11 06:43:56;;;;;;;10.75;5.20;;;21.30;99.90;;;;;;5063182;28;320117;-70
2023/08/11 06:46:22;;;;;;;12.00;4.82;;;21.30;99.90;;;;;;5068658;28;20056;-70
2023/08/11 06:48:48;;;;;;;12.88;4.82;;;21.40;99.90;;;;;;5055056;28;268184;-70
2023/08/11 06:51:15;;;;;;;11.25;4.70;;;21.40;99.90;;;;;;5068610;28;20144;-70
2023/08/11 06:53:41;;;;;;;10.98;4.47;;;21.50;99.90;;;;;;5038900;28;269304;-69
2023/08/11 06:56:07;;;;;;;10.20;4.78;;;21.60;99.90;;;;;;5068755;28;20044;-70
2023/08/11 06:58:33;;;;;;;11.32;4.38;;;21.80;99.90;;;;;;5044496;28;129103;-69
2023/08/11 07:00:59;;;;;;;9.82;4.30;;;22.00;99.90;;;;;;5054726;28;20056;-69
2023/08/11 07:03:25;;;;;;;10.32;3.88;;;22.10;99.90;;;;;;5055407;28;272234;-68
2023/08/11 07:05:52;;;;;;;10.30;4.03;;;22.30;99.90;;;;;;5062704;28;20057;-69
2023/08/11 07:08:21;;;;;;;9.90;3.70;;;22.40;99.90;;;;;;5055515;28;265004;-69
2023/08/11 07:10:47;;;;;;;9.68;4.05;;;22.60;99.90;;;;;;5071126;28;20040;-69
2023/08/11 07:13:13;;;;;;;9.38;4.00;;;22.80;99.90;;;;;;5060112;28;270738;-69
2023/08/11 07:15:42;;;;;;;10.80;3.92;;;23.00;99.90;;;;;;5069074;28;20103;-69
2023/08/11 07:18:09;;;;;;;9.35;4.28;;;23.00;99.90;;;;;;5059508;28;268151;-71
2023/08/11 07:20:42;;;;;;;12.57;3.90;;;22.70;99.90;;;;;;5044656;28;20614;-71
2023/08/11 07:23:09;;;;;;;10.07;3.95;;;23.00;99.90;;;;;;5054783;28;91461;-69
2023/08/11 07:25:35;;;;;;;9.63;3.60;;;23.10;99.90;;;;;;5058844;28;20499;-68
2023/08/11 07:28:02;;;;;;;10.88;4.10;;;23.30;99.90;;;;;;5045111;28;141027;-68
2023/08/11 07:30:30;;;;;;;9.68;4.18;;;23.40;99.90;;;;;;5071233;28;20064;-70
2023/08/11 07:33:00;;;;;;;12.75;4.30;;;23.30;99.90;;;;;;5048223;28;215060;-69
2023/08/11 07:35:26;;;;;;;10.88;4.05;;;23.40;99.90;;;;;;5062434;28;20064;-70
2023/08/11 07:37:52;;;;;;;10.82;3.85;;;23.60;99.90;;;;;;5060117;28;263226;-71
2023/08/11 07:40:19;;;;;;;10.32;4.00;;;23.70;99.90;;;;;;5060171;28;20052;-69
2023/08/11 07:42:45;;;;;;;10.77;4.00;;;23.80;99.90;;;;;;5052701;28;269515;-70
2023/08/11 07:45:11;;;;;;;11.43;3.85;;;24.10;99.90;;;;;;5069731;28;20048;-69
2023/08/11 07:47:38;;;;;;;9.50;3.90;;;24.20;99.90;;;;;;5055898;28;257552;-68
2023/08/11 07:50:05;;;;;;;10.20;3.80;;;24.30;99.90;;;;;;5071845;28;20040;-69
2023/08/11 07:52:31;;;;;;;10.00;3.90;;;24.50;99.90;;;;;;5039921;28;254465;-68
2023/08/11 07:54:57;;;;;;;9.98;4.20;;;24.70;99.90;;;;;;5069233;28;20052;-70
2023/08/11 07:57:23;;;;;;;9.80;3.67;;;24.80;99.90;;;;;;5055945;28;261766;-68
2023/08/11 07:59:49;;;;;;;10.80;3.50;;;24.70;99.90;;;;;;5060794;28;20056;-69
2023/08/11 08:02:16;;;;;;;8.13;3.30;;;24.70;99.80;;;;;;5052870;28;254801;-70
2023/08/11 08:04:42;;;;;;;11.82;3.60;;;24.90;99.60;;;;;;5064754;28;20061;-69
2023/08/11 08:07:10;;;;;;;11.25;3.63;;;24.60;99.80;;;;;;5049731;28;270757;-70
2023/08/11 08:09:38;;;;;;;9.57;3.25;;;24.90;99.50;;;;;;5062924;28;20060;-70
2023/08/11 08:12:05;;;;;;;11.20;3.58;;;25.00;99.60;;;;;;5055353;28;144069;-69
2023/08/11 08:14:31;;;;;;;12.98;3.88;;;25.20;99.20;;;;;;5072234;28;20049;-70
2023/08/11 08:17:01;;;;;;;9.65;3.47;;;25.00;98.30;;;;;;5031133;28;271788;-69
2023/08/11 08:19:27;;;;;;;9.18;4.03;;;25.10;98.60;;;;;;5075179;28;20060;-70
2023/08/11 08:21:53;;;;;;;11.75;3.42;;;25.40;99.10;;;;;;5052060;28;257930;-69
2023/08/11 08:24:19;;;;;;;9.93;3.78;;;25.80;98.90;;;;;;5066462;28;20057;-69
2023/08/11 08:26:47;;;;;;;7.97;3.42;;;25.90;98.40;;;;;;5045349;28;257763;-71
2023/08/11 08:29:14;;;;;;;8.98;3.63;;;26.30;98.70;;;;;;5081540;28;20068;-69
2023/08/11 08:31:40;;;;;;;9.85;3.33;;;26.40;97.60;;;;;;5042019;28;271968;-69
2023/08/11 08:34:07;;;;;;;8.18;3.30;;;26.80;98.10;;;;;;5080800;28;20055;-70
2023/08/11 08:36:33;;;;;;;8.13;3.30;;;26.90;97.70;;;;;;5060288;28;20061;-69
2023/08/11 08:38:59;;;;;;;9.88;2.85;;;26.60;96.80;;;;;;5056202;28;61784;-68
2023/08/11 08:41:30;;;;;;;10.73;3.10;;;26.60;96.90;;;;;;5068184;28;20048;-67
2023/08/11 08:43:59;;;;;;;9.23;3.30;;;26.70;96.90;;;;;;5053595;28;262674;-70
2023/08/11 08:46:31;;;;;;;9.05;3.00;;;26.70;97.20;;;;;;5066557;28;20040;-69
2023/08/11 08:49:23;;;;;;;9.32;3.10;;;26.90;97.40;;;;;;5063650;28;254164;-69
2023/08/11 08:51:49;;;;;;;9.52;3.15;;;27.60;97.30;;;;;;5032282;28;268358;-69
2023/08/11 08:54:15;;;;;;;8.32;3.13;;;27.70;97.30;;;;;;5063560;28;20044;-69
2023/08/11 08:56:42;;;;;;;8.80;3.08;;;27.80;96.60;;;;;;5051306;28;256936;-69
2023/08/11 08:59:08;;;;;;;10.13;3.15;;;28.00;96.00;;;;;;5068087;28;20052;-70
2023/08/11 09:01:35;;;;;;;8.40;2.80;;;28.00;96.10;;;;;;5060463;28;20060;-70
2023/08/11 09:04:02;;;;;;;10.85;3.00;;;28.30;97.10;;;;;;5061592;28;20423;-70
2023/08/11 09:06:28;;;;;;;8.68;3.05;;;28.90;96.60;;;;;;5072454;28;20063;-70
2023/08/11 09:08:56;;;;;;;8.77;3.00;;;29.50;95.90;;;;;;5062278;28;257100;-70
2023/08/11 09:11:23;;;;;;;10.48;3.35;;;29.60;95.10;;;;;;5087687;28;20056;-69
2023/08/11 09:13:49;;;;;;;9.23;3.20;;;29.40;95.20;;;;;;5061097;28;263400;-69
2023/08/11 09:16:15;;;;;;;7.82;2.90;;;29.70;95.40;;;;;;5061628;28;20057;-70
2023/08/11 09:18:43;;;;;;;10.50;2.92;;;30.10;95.00;;;;;;5044053;28;253206;-69
2023/08/11 09:21:09;;;;;;;9.70;3.35;;;30.30;95.40;;;;;;5072614;28;20048;-70
2023/08/11 09:23:36;;;;;;;9.65;3.33;;;30.80;94.40;;;;;;5065301;28;271207;-70
2023/08/11 09:26:02;;;;;;;9.35;2.85;;;30.60;93.70;;;;;;5071015;28;20068;-70
2023/08/11 09:28:28;;;;;;;10.25;3.10;;;31.00;94.30;;;;;;5069551;28;268791;-70
2023/08/11 09:30:55;;;;;;;11.05;3.42;;;31.10;93.70;;;;;;5069427;28;20059;-70
2023/08/11 09:33:22;;;;;;;9.95;3.20;;;31.50;93.40;;;;;;5063954;28;279765;-70
2023/08/11 09:35:48;;;;;;;9.82;2.90;;;31.20;92.20;;;;;;5072721;28;20036;-70
2023/08/11 09:38:15;;;;;;;9.25;3.15;;;31.00;92.90;;;;;;5057882;28;276960;-70
2023/08/11 09:40:41;;;;;;;9.65;3.33;;;30.30;93.30;;;;;;5070621;28;20075;-69
2023/08/11 09:43:11;;;;;;;9.73;3.17;;;30.40;93.60;;;;;;5061360;28;49442;-69
2023/08/11 09:45:37;;;;;;;8.88;2.80;;;30.60;93.30;;;;;;5066190;28;20072;-69
2023/08/11 09:48:04;;;;;;;8.45;2.97;;;31.20;93.70;;;;;;5040393;28;175009;-70
2023/08/11 09:50:33;;;;;;;9.13;3.17;;;31.80;93.30;;;;;;5055925;28;20059;-69
2023/08/11 09:53:00;;;;;;;8.10;2.70;;;32.20;92.20;;;;;;5036376;28;257797;-69
2023/08/11 09:55:29;;;;;;;8.88;3.05;;;31.60;92.00;;;;;;5068869;28;20052;-69
2023/08/11 09:57:58;;;;;;;9.70;2.97;;;31.80;92.80;;;;;;5060924;28;259089;-73
2023/08/11 10:00:25;;;;;;;8.85;3.28;;;32.60;93.00;;;;;;5062445;28;20510;-71
2023/08/11 10:03:06;;;;;;;10.85;2.80;;;33.30;92.00;;;;;;5052786;28;203409;-71
2023/08/11 10:05:38;;;;;;;10.35;2.92;;;34.00;91.70;;;;;;5072168;28;20434;-70
2023/08/11 10:08:09;;;;;;;7.72;2.58;;;34.00;91.60;;;;;;5064051;28;253939;-70
2023/08/11 10:10:37;;;;;;;9.00;2.92;;;34.30;91.50;;;;;;5068532;28;20056;-71
2023/08/11 10:13:08;;;;;;;10.15;2.90;;;34.00;91.50;;;;;;5060763;28;256994;-69
2023/08/11 10:15:35;;;;;;;8.05;2.70;;;33.50;91.10;;;;;;5060022;28;20371;-69
2023/08/11 10:18:01;;;;;;;8.38;2.60;;;33.60;91.20;;;;;;5065808;28;279982;-70
2023/08/11 10:20:29;;;;;;;8.75;2.88;;;33.40;90.50;;;;;;5070490;28;20053;-71
2023/08/11 10:22:56;;;;;;;11.20;2.80;;;32.50;91.10;;;;;;5063681;28;266154;-70
2023/08/11 10:25:24;;;;;;;8.13;2.65;;;33.00;91.50;;;;;;5068879;28;20056;-70
2023/08/11 10:27:51;;;;;;;9.20;2.50;;;33.50;91.00;;;;;;5062908;28;257995;-70
2023/08/11 10:30:17;;;;;;;8.15;2.85;;;33.90;91.40;;;;;;5077664;28;20500;-69
2023/08/11 10:32:43;;;;;;;8.50;2.65;;;34.50;91.20;;;;;;5055192;28;265271;-70
2023/08/11 10:35:24;;;;;;;7.80;2.35;;;34.70;89.70;;;;;;5072451;28;20499;-69
2023/08/11 10:37:59;;;;;;;8.73;2.58;;;34.40;90.00;;;;;;5065774;28;253271;-69
2023/08/11 10:40:38;;;;;;;7.45;2.78;;;33.90;89.30;;;;;;5068489;28;20049;-70
2023/08/11 10:43:04;;;;;;;8.85;2.53;;;33.70;88.70;;;;;;5053759;28;255808;-70
2023/08/11 10:45:35;;;;;;;12.43;3.20;;;33.20;90.20;;;;;;5079660;28;20049;-70
2023/08/11 10:48:08;;;;;;;12.35;4.28;;;33.40;90.70;;;;;;5057935;28;255513;-69
2023/08/11 10:50:38;;;;;;;9.65;2.95;;;33.50;89.50;;;;;;5064367;28;20053;-69
2023/08/11 10:53:19;;;;;;;12.00;2.72;;;33.60;89.10;;;;;;5033557;28;200231;-70
2023/08/11 10:56:02;;;;;;;9.80;2.90;;;33.20;90.00;;;;;;5047623;28;20044;-69
2023/08/11 10:58:32;;;;;;;8.88;2.53;;;32.70;89.10;;;;;;5054612;28;259543;-69
2023/08/11 11:00:59;;;;;;;13.95;2.63;;;32.60;90.30;;;;;;5062729;28;20059;-69
2023/08/11 11:03:25;;;;;;;10.90;2.70;;;32.80;91.30;;;;;;5058608;28;273042;-69
2023/08/11 11:05:52;;;;;;;8.18;2.65;;;33.40;90.80;;;;;;5065166;28;20051;-69
2023/08/11 11:08:18;;;;;;;8.77;2.70;;;33.40;89.70;;;;;;5053534;28;255881;-70
2023/08/11 11:10:44;;;;;;;10.02;2.60;;;33.30;89.40;;;;;;5064634;28;20087;-70
2023/08/11 11:13:10;;;;;;;7.72;2.70;;;33.30;89.10;;;;;;5064360;28;264480;-70
2023/08/11 11:15:36;;;;;;;8.73;2.63;;;33.20;89.30;;;;;;5066738;28;20057;-68
2023/08/11 11:18:02;;;;;;;7.47;2.15;;;33.20;88.60;;;;;;5052106;28;267819;-69
2023/08/11 11:20:29;;;;;;;8.35;2.45;;;33.10;88.20;;;;;;5061422;28;20499;-70
2023/08/11 11:22:55;;;;;;;6.93;2.45;;;32.70;88.50;;;;;;5061734;28;251062;-69
2023/08/11 11:25:21;;;;;;;9.43;2.30;;;32.50;89.20;;;;;;5066164;28;20063;-71
2023/08/11 11:27:48;;;;;;;10.57;2.50;;;32.60;89.30;;;;;;5055040;28;259549;-71
2023/08/11 11:30:15;;;;;;;7.20;2.13;;;32.40;89.10;;;;;;5070744;28;20063;-70
2023/08/11 11:32:42;;;;;;;7.93;2.38;;;32.30;90.00;;;;;;5058881;28;271390;-69
2023/08/11 11:35:08;;;;;;;8.88;2.35;;;32.30;89.50;;;;;;5069135;28;20044;-69
2023/08/11 11:37:37;;;;;;;6.53;1.92;;;32.40;89.30;;;;;;5055054;28;256251;-71
2023/08/11 11:40:06;;;;;;;8.35;2.42;;;32.40;90.30;;;;;;5068061;28;20058;-70
2023/08/11 11:42:38;;;;;;;7.40;2.30;;;32.60;90.00;;;;;;5057859;28;265674;-70
2023/08/11 11:45:05;;;;;;;8.40;2.60;;;32.80;90.00;;;;;;5069280;28;20056;-69
2023/08/11 11:47:33;;;;;;;7.80;2.38;;;32.50;90.10;;;;;;5058127;28;266191;-69
2023/08/11 11:50:09;;;;;;;8.50;2.40;;;32.30;90.00;;;;;;5062643;28;20049;-71
2023/08/11 11:52:36;;;;;;;11.70;2.70;;;32.60;89.80;;;;;;5041783;28;274844;-71
2023/08/11 11:55:03;;;;;;;7.88;2.30;;;32.10;88.70;;;;;;5058547;28;20075;-69
2023/08/11 11:57:29;;;;;;;8.18;2.22;;;31.80;89.40;;;;;;5064226;28;268054;-71
2023/08/11 11:59:56;;;;;;;8.77;2.60;;;31.80;88.70;;;;;;5063052;28;20426;-71
2023/08/11 12:02:22;;;;;;;8.38;2.20;;;31.80;89.50;;;;;;5044847;28;258949;-70
2023/08/11 12:04:49;;;;;;;9.25;2.50;;;32.20;89.60;;;;;;5064935;28;20052;-71
2023/08/11 12:07:32;;;;;;;12.68;2.60;;;32.70;90.00;;;;;;5060361;28;257048;-70
2023/08/11 12:09:59;;;;;;;6.60;2.17;;;33.20;89.70;;;;;;5071992;28;20111;-70
2023/08/11 12:12:28;;;;;;;9.32;2.42;;;33.40;87.60;;;;;;5057173;28;251038;-69
2023/08/11 12:15:01;;;;;;;8.63;2.30;;;33.20;88.50;;;;;;5068692;28;20063;-71
2023/08/11 12:17:33;;;;;;;7.93;2.17;;;33.00;89.10;;;;;;5055780;28;276658;-70
2023/08/11 12:20:04;;;;;;;9.73;2.60;;;32.60;87.30;;;;;;5077062;28;20059;-69
2023/08/11 12:22:30;;;;;;;9.77;2.17;;;32.60;89.10;;;;;;5057392;28;268652;-69
2023/08/11 12:24:56;;;;;;;7.28;2.22;;;32.80;89.10;;;;;;5076581;28;20053;-69
2023/08/11 12:27:22;;;;;;;9.35;2.10;;;33.10;89.00;;;;;;5048301;28;229418;-73
2023/08/11 12:29:49;;;;;;;8.27;2.40;;;32.90;89.40;;;;;;5067670;28;20044;-70
2023/08/11 12:32:15;;;;;;;7.50;2.20;;;32.80;88.50;;;;;;5056040;28;262442;-70
2023/08/11 12:34:41;;;;;;;7.00;2.10;;;33.10;88.60;;;;;;5074717;28;20618;-70